createdAt,value
2022-11-13T00:02:46.347Z,13.10
2022-11-13T00:05:33.024Z,13.10
2022-11-13T00:08:20.932Z,13.10
2022-11-13T00:11:10.410Z,13.10
2022-11-13T00:13:57.274Z,13.10
2022-11-13T00:16:44.081Z,13.10
2022-11-13T00:19:30.777Z,13.00
2022-11-13T00:22:17.622Z,13.00
2022-11-13T00:25:06.559Z,13.00
2022-11-13T00:27:53.195Z,13.00
2022-11-13T00:30:39.839Z,13.00
2022-11-13T00:33:54.998Z,13.00
2022-11-13T00:36:33.075Z,12.90
2022-11-13T00:39:19.917Z,12.90
2022-11-13T00:42:07.749Z,12.90
2022-11-13T00:44:54.472Z,12.90
2022-11-13T00:47:41.040Z,12.80
2022-11-13T00:50:27.646Z,12.80
2022-11-13T00:53:18.092Z,12.80
2022-11-13T00:56:05.569Z,12.80
2022-11-13T00:58:53.684Z,12.80
2022-11-13T01:01:40.568Z,12.80
2022-11-13T01:04:29.940Z,12.70
2022-11-13T01:07:16.516Z,12.70
2022-11-13T01:10:03.560Z,12.70
2022-11-13T01:12:50.269Z,12.70
2022-11-13T01:15:40.894Z,12.60
2022-11-13T01:18:27.739Z,12.60
2022-11-13T01:21:17.709Z,12.60
2022-11-13T01:24:04.856Z,12.60
2022-11-13T01:26:51.629Z,12.60
2022-11-13T01:29:39.142Z,12.60
2022-11-13T01:32:26.955Z,12.50
2022-11-13T01:35:13.596Z,12.50
2022-11-13T01:38:00.245Z,12.50
2022-11-13T01:40:47.181Z,12.50
2022-11-13T01:43:37.205Z,12.50
2022-11-13T01:46:29.157Z,12.40
2022-11-13T01:49:28.150Z,12.40
2022-11-13T01:52:20.378Z,12.40
2022-11-13T01:55:11.969Z,12.40
2022-11-13T01:57:59.947Z,12.40
2022-11-13T02:00:47.293Z,12.30
2022-11-13T02:03:34.216Z,12.30
2022-11-13T02:06:23.171Z,12.30
2022-11-13T02:09:12.181Z,12.30
2022-11-13T02:11:59.955Z,12.30
2022-11-13T02:14:52.043Z,12.30
2022-11-13T02:17:45.409Z,12.20
2022-11-13T02:20:41.853Z,12.20
2022-11-13T02:23:46.644Z,12.20
2022-11-13T02:26:35.002Z,12.20
2022-11-13T02:29:21.736Z,12.20
2022-11-13T02:32:08.732Z,12.20
2022-11-13T02:34:55.534Z,12.20
2022-11-13T02:37:42.595Z,12.10
2022-11-13T02:40:30.316Z,12.10
2022-11-13T02:43:18.043Z,12.10
2022-11-13T02:46:04.821Z,12.10
2022-11-13T02:48:51.192Z,12.10
2022-11-13T02:51:38.014Z,12.10
2022-11-13T02:54:24.818Z,12.00
2022-11-13T02:57:11.680Z,12.00
2022-11-13T02:59:59.820Z,12.00
2022-11-13T03:02:46.527Z,12.00
2022-11-13T03:05:33.304Z,12.00
2022-11-13T03:08:20.705Z,12.00
2022-11-13T03:11:12.588Z,11.90
2022-11-13T03:13:59.103Z,11.90
2022-11-13T03:16:47.025Z,11.90
2022-11-13T03:19:33.660Z,11.90
2022-11-13T03:22:20.415Z,11.90
2022-11-13T03:25:10.712Z,11.90
2022-11-13T03:27:58.017Z,11.90
2022-11-13T03:30:44.568Z,11.80
2022-11-13T03:33:33.374Z,11.80
2022-11-13T03:36:19.863Z,11.80
2022-11-13T03:39:06.844Z,11.80
2022-11-13T03:41:54.036Z,11.80
2022-11-13T03:44:41.040Z,11.80
2022-11-13T03:47:27.928Z,11.80
2022-11-13T03:50:16.711Z,11.70
2022-11-13T03:53:03.573Z,11.70
2022-11-13T03:55:50.354Z,11.70
2022-11-13T03:58:40.126Z,11.70
2022-11-13T04:01:27.251Z,11.70
2022-11-13T04:04:13.978Z,11.70
2022-11-13T04:07:02.251Z,11.60
2022-11-13T04:09:48.941Z,11.60
2022-11-13T04:12:35.699Z,11.60
2022-11-13T04:15:22.892Z,11.60
2022-11-13T04:18:09.735Z,11.60
2022-11-13T04:21:01.039Z,11.50
2022-11-13T04:23:48.881Z,11.50
2022-11-13T04:26:35.443Z,11.60
2022-11-13T04:29:22.289Z,11.50
2022-11-13T04:32:09.071Z,11.50
2022-11-13T04:34:55.587Z,11.50
2022-11-13T04:37:42.344Z,11.50
2022-11-13T04:40:30.457Z,11.50
2022-11-13T04:43:16.173Z,11.50
2022-11-13T04:46:02.809Z,11.50
2022-11-13T04:48:49.405Z,11.50
2022-11-13T04:51:36.240Z,11.40
2022-11-13T04:54:28.524Z,11.40
2022-11-13T04:57:16.795Z,11.40
2022-11-13T05:00:06.251Z,11.40
2022-11-13T05:02:53.163Z,11.40
2022-11-13T05:05:39.859Z,11.40
2022-11-13T05:08:26.905Z,11.40
2022-11-13T05:11:14.328Z,11.30
2022-11-13T05:14:03.646Z,11.30
2022-11-13T05:16:51.616Z,11.30
2022-11-13T05:19:38.505Z,11.30
2022-11-13T05:22:25.265Z,11.30
2022-11-13T05:25:12.020Z,11.30
2022-11-13T05:27:59.175Z,11.30
2022-11-13T05:30:47.241Z,11.20
2022-11-13T05:33:34.149Z,11.20
2022-11-13T05:36:22.811Z,11.20
2022-11-13T05:39:09.380Z,11.20
2022-11-13T05:41:55.966Z,11.20
2022-11-13T05:44:42.713Z,11.20
2022-11-13T05:47:30.541Z,11.20
2022-11-13T05:50:17.731Z,11.10
2022-11-13T05:53:04.414Z,11.10
2022-11-13T05:55:51.146Z,11.10
2022-11-13T05:58:38.503Z,11.10
2022-11-13T06:01:28.709Z,11.10
2022-11-13T06:04:16.712Z,11.10
2022-11-13T06:07:03.537Z,11.10
2022-11-13T06:09:50.482Z,11.10
2022-11-13T06:12:37.003Z,11.00
2022-11-13T06:15:23.496Z,11.00
2022-11-13T06:18:09.940Z,11.00
2022-11-13T06:21:02.714Z,11.00
2022-11-13T06:23:50.013Z,11.00
2022-11-13T06:26:38.711Z,11.00
2022-11-13T06:29:25.506Z,11.00
2022-11-13T06:32:12.104Z,11.00
2022-11-13T06:34:58.426Z,11.00
2022-11-13T06:37:47.265Z,10.90
2022-11-13T06:40:33.684Z,10.90
2022-11-13T06:43:20.292Z,10.90
2022-11-13T06:46:11.174Z,10.90
2022-11-13T06:48:58.317Z,10.90
2022-11-13T06:51:44.875Z,10.90
2022-11-13T06:54:32.877Z,10.90
2022-11-13T06:57:19.765Z,10.90
2022-11-13T07:00:08.408Z,10.90
2022-11-13T07:02:55.272Z,10.90
2022-11-13T07:05:41.828Z,10.90
2022-11-13T07:08:28.942Z,10.80
2022-11-13T07:11:21.662Z,10.80
2022-11-13T07:14:11.617Z,10.80
2022-11-13T07:17:09.140Z,10.80
2022-11-13T07:19:56.677Z,10.80
2022-11-13T07:22:43.603Z,10.80
2022-11-13T07:25:32.076Z,10.80
2022-11-13T07:28:20.115Z,10.80
2022-11-13T07:31:08.568Z,10.80
2022-11-13T07:33:55.158Z,10.80
2022-11-13T07:36:41.803Z,10.80
2022-11-13T07:39:28.704Z,10.80
2022-11-13T07:42:15.515Z,10.80
2022-11-13T07:45:04.351Z,10.80
2022-11-13T07:47:50.874Z,10.80
2022-11-13T07:50:39.352Z,10.80
2022-11-13T07:53:26.234Z,10.90
2022-11-13T07:56:13.008Z,10.90
2022-11-13T07:58:59.839Z,10.90
2022-11-13T08:01:48.061Z,10.90
2022-11-13T08:04:34.617Z,10.90
2022-11-13T08:07:21.201Z,10.90
2022-11-13T08:10:08.939Z,10.90
2022-11-13T08:13:01.488Z,10.90
2022-11-13T08:15:47.912Z,10.90
2022-11-13T08:18:35.981Z,10.90
2022-11-13T08:21:23.129Z,10.90
2022-11-13T08:24:10.838Z,10.90
2022-11-13T08:26:58.105Z,10.90
2022-11-13T08:29:45.371Z,10.90
2022-11-13T08:32:32.191Z,11.00
2022-11-13T08:35:25.222Z,11.00
2022-11-13T08:38:15.717Z,11.00
2022-11-13T08:41:08.568Z,11.00
2022-11-13T08:43:56.197Z,11.00
2022-11-13T08:46:42.969Z,11.00
2022-11-13T08:49:29.557Z,11.00
2022-11-13T08:52:18.523Z,11.00
2022-11-13T08:55:05.971Z,11.10
2022-11-13T08:57:53.908Z,11.10
2022-11-13T09:00:40.860Z,11.10
2022-11-13T09:03:27.707Z,11.10
2022-11-13T09:06:14.631Z,11.10
2022-11-13T09:09:03.192Z,11.10
2022-11-13T09:11:50.526Z,11.20
2022-11-13T09:14:37.866Z,11.20
2022-11-13T09:17:24.454Z,11.20
2022-11-13T09:20:14.060Z,11.20
2022-11-13T09:23:04.390Z,11.20
2022-11-13T09:25:52.193Z,11.20
2022-11-13T09:28:38.932Z,11.20
2022-11-13T09:31:25.723Z,11.30
2022-11-13T09:34:12.295Z,11.30
2022-11-13T09:36:58.994Z,11.30
2022-11-13T09:39:45.807Z,11.30
2022-11-13T09:42:36.225Z,11.30
2022-11-13T09:45:23.512Z,11.30
2022-11-13T09:48:26.734Z,11.30
2022-11-13T09:51:19.375Z,11.30
2022-11-13T09:54:08.715Z,11.40
2022-11-13T09:57:12.358Z,11.30
2022-11-13T10:00:05.002Z,11.40
2022-11-13T10:03:13.631Z,11.40
2022-11-13T10:06:14.844Z,11.40
2022-11-13T10:09:10.266Z,11.40
2022-11-13T10:12:02.410Z,11.40
2022-11-13T10:14:53.813Z,11.40
2022-11-13T10:17:47.101Z,11.40
2022-11-13T10:20:42.180Z,11.50
2022-11-13T10:23:33.395Z,11.50
2022-11-13T10:26:24.583Z,11.50
2022-11-13T10:29:15.798Z,11.50
2022-11-13T10:32:21.562Z,11.50
2022-11-13T10:35:32.589Z,11.50
2022-11-13T10:38:31.717Z,11.50
2022-11-13T10:41:21.189Z,11.60
2022-11-13T10:44:21.154Z,11.60
2022-11-13T10:47:26.388Z,11.60
2022-11-13T10:50:27.213Z,11.60
2022-11-13T10:53:17.853Z,11.60
2022-11-13T10:56:21.373Z,11.60
2022-11-13T10:59:13.707Z,11.70
2022-11-13T11:02:18.032Z,11.70
2022-11-13T11:05:08.077Z,11.70
2022-11-13T11:07:58.209Z,11.80
2022-11-13T11:11:15.389Z,11.80
2022-11-13T11:14:18.690Z,11.80
2022-11-13T11:17:07.084Z,11.80
2022-11-13T11:20:01.630Z,11.90
2022-11-13T11:22:53.743Z,11.90
2022-11-13T11:25:49.949Z,11.90
2022-11-13T11:28:44.077Z,11.90
2022-11-13T11:31:40.299Z,12.00
2022-11-13T11:34:37.797Z,12.00
2022-11-13T11:37:34.354Z,12.00
2022-11-13T11:40:30.230Z,12.10
2022-11-13T11:43:34.073Z,12.10
2022-11-13T11:46:25.567Z,12.10
2022-11-13T11:49:12.640Z,12.20
2022-11-13T11:52:15.809Z,12.20
2022-11-13T11:55:51.504Z,12.20
2022-11-13T11:59:14.113Z,12.20
2022-11-13T12:03:06.038Z,12.20
2022-11-13T12:06:08.446Z,12.20
2022-11-13T12:09:05.550Z,12.20
2022-11-13T12:12:02.144Z,12.30
2022-11-13T12:15:04.257Z,12.40
2022-11-13T12:18:05.880Z,12.40
2022-11-13T12:21:09.927Z,12.50
2022-11-13T12:24:37.552Z,12.50
2022-11-13T12:27:35.383Z,12.50
2022-11-13T12:30:36.300Z,12.60
2022-11-13T12:33:38.817Z,12.60
2022-11-13T12:36:26.614Z,12.70
2022-11-13T12:39:34.394Z,12.70
2022-11-13T12:42:34.190Z,12.80
2022-11-13T12:45:43.771Z,12.80
2022-11-13T12:48:36.293Z,12.90
2022-11-13T12:51:23.329Z,12.90
2022-11-13T12:54:11.459Z,13.00
2022-11-13T12:57:19.785Z,13.00
2022-11-13T13:00:24.971Z,13.00
2022-11-13T13:03:40.171Z,13.00
2022-11-13T13:06:52.290Z,13.10
2022-11-13T13:09:54.290Z,13.10
2022-11-13T13:12:55.421Z,13.20
2022-11-13T13:15:47.327Z,13.20
2022-11-13T13:18:37.653Z,13.30
2022-11-13T13:21:24.466Z,13.30
2022-11-13T13:24:31.395Z,13.30
2022-11-13T13:27:26.947Z,13.40
2022-11-13T13:30:20.030Z,13.40
2022-11-13T13:33:23.111Z,13.40
2022-11-13T13:36:24.996Z,13.50
2022-11-13T13:39:38.729Z,13.50
2022-11-13T13:42:53.108Z,13.50
2022-11-13T13:45:52.896Z,13.60
2022-11-13T13:48:43.290Z,13.60
2022-11-13T13:51:37.809Z,13.60
2022-11-13T13:54:29.889Z,13.60
2022-11-13T13:57:17.840Z,13.70
2022-11-13T14:00:05.296Z,13.70
2022-11-13T14:02:54.567Z,13.70
2022-11-13T14:05:41.432Z,13.70
2022-11-13T14:08:30.300Z,13.80
2022-11-13T14:11:20.962Z,13.80
2022-11-13T14:14:18.692Z,13.80
2022-11-13T14:17:05.622Z,13.80
2022-11-13T14:19:53.698Z,13.90
2022-11-13T14:22:41.427Z,13.90
2022-11-13T14:25:30.756Z,13.90
2022-11-13T14:28:20.465Z,13.90
2022-11-13T14:31:10.392Z,13.90
2022-11-13T14:33:58.815Z,13.90
2022-11-13T14:36:45.694Z,14.00
2022-11-13T14:39:35.460Z,14.00
2022-11-13T14:42:36.552Z,14.00
2022-11-13T14:45:27.001Z,14.00
2022-11-13T14:48:26.021Z,14.00
2022-11-13T14:51:25.527Z,14.00
2022-11-13T14:54:53.220Z,14.00
2022-11-13T14:57:49.867Z,14.00
2022-11-13T15:00:39.048Z,14.00
2022-11-13T15:03:28.574Z,14.00
2022-11-13T15:06:18.333Z,14.00
2022-11-13T15:09:12.468Z,14.00
2022-11-13T15:11:59.259Z,14.10
2022-11-13T15:14:47.877Z,14.10
2022-11-13T15:17:34.585Z,14.10
2022-11-13T15:20:26.302Z,14.00
2022-11-13T15:33:00.262Z,14.00
2022-11-13T15:35:47.032Z,14.10
2022-11-13T15:38:33.829Z,14.10
2022-11-13T15:41:23.427Z,14.10
2022-11-13T15:44:15.661Z,14.10
2022-11-13T15:47:03.881Z,14.10
2022-11-13T15:50:09.694Z,14.10
2022-11-13T15:53:05.453Z,14.10
2022-11-13T15:55:52.504Z,14.10
2022-11-13T15:58:39.372Z,14.10
2022-11-13T16:01:26.134Z,14.10
2022-11-13T16:04:16.182Z,14.10
2022-11-13T16:07:03.096Z,14.20
2022-11-13T16:09:50.063Z,14.20
2022-11-13T16:12:37.002Z,14.20
2022-11-13T16:15:24.602Z,14.10
2022-11-13T16:18:23.918Z,14.20
2022-11-13T16:21:14.683Z,14.10
2022-11-13T16:24:01.339Z,14.20
2022-11-13T16:26:52.684Z,14.10
2022-11-13T16:29:39.426Z,14.10
2022-11-13T16:32:26.764Z,14.10
2022-11-13T16:35:15.140Z,14.10
2022-11-13T16:38:03.709Z,14.10
2022-11-13T16:40:50.286Z,14.10
2022-11-13T16:43:37.205Z,14.10
2022-11-13T16:46:30.571Z,14.10
2022-11-13T16:49:19.466Z,14.10
2022-11-13T16:52:06.345Z,14.10
2022-11-13T16:54:54.570Z,14.10
2022-11-13T16:57:42.496Z,14.10
2022-11-13T17:00:28.992Z,14.10
2022-11-13T17:03:15.515Z,14.10
2022-11-13T17:06:02.459Z,14.10
2022-11-13T17:08:51.794Z,14.10
2022-11-13T17:11:39.735Z,14.10
2022-11-13T17:14:26.212Z,14.10
2022-11-13T17:17:14.491Z,14.10
2022-11-13T17:20:01.102Z,14.10
2022-11-13T17:22:49.175Z,14.10
2022-11-13T17:25:36.120Z,14.00
2022-11-13T17:28:24.203Z,14.00
2022-11-13T17:31:13.469Z,14.00
2022-11-13T17:34:00.275Z,14.00
2022-11-13T17:36:47.476Z,14.00
2022-11-13T17:39:34.381Z,14.00
2022-11-13T17:42:21.174Z,14.00
2022-11-13T17:45:11.589Z,14.00
2022-11-13T17:47:59.352Z,13.90
2022-11-13T17:50:46.364Z,14.00
2022-11-13T17:53:33.750Z,14.00
2022-11-13T17:56:20.361Z,14.00
2022-11-13T17:59:10.970Z,13.90
2022-11-13T18:01:59.133Z,13.90
2022-11-13T18:04:45.729Z,13.90
2022-11-13T18:07:32.593Z,13.90
2022-11-13T18:10:19.484Z,13.90
2022-11-13T18:13:06.283Z,13.90
2022-11-13T18:15:52.965Z,13.90
2022-11-13T18:18:41.820Z,13.80
2022-11-13T18:21:32.404Z,13.80
2022-11-13T18:24:20.366Z,13.80
2022-11-13T18:27:08.092Z,13.80
2022-11-13T18:29:54.938Z,13.80
2022-11-13T18:32:41.575Z,13.80
2022-11-13T18:35:29.617Z,13.80
2022-11-13T18:38:16.088Z,13.80
2022-11-13T18:41:06.455Z,13.70
2022-11-13T18:43:54.081Z,13.70
2022-11-13T18:46:41.304Z,13.70
2022-11-13T18:49:27.854Z,13.70
2022-11-13T18:52:16.156Z,13.70
2022-11-13T18:55:02.878Z,13.70
2022-11-13T18:57:49.482Z,13.60
2022-11-13T19:00:36.247Z,13.60
2022-11-13T19:03:23.452Z,13.60
2022-11-13T19:06:14.178Z,13.60
2022-11-13T19:09:06.459Z,13.60
2022-11-13T19:11:55.006Z,13.60
2022-11-13T19:14:42.973Z,13.60
2022-11-13T19:17:29.594Z,13.60
2022-11-13T19:20:18.521Z,13.60
2022-11-13T19:23:09.233Z,13.50
2022-11-13T19:25:57.680Z,13.50
2022-11-13T19:28:48.810Z,13.50
2022-11-13T19:31:35.799Z,13.50
2022-11-13T19:34:22.628Z,13.50
2022-11-13T19:37:09.472Z,13.50
2022-11-13T19:39:56.332Z,13.50
2022-11-13T19:42:44.390Z,13.40
2022-11-13T19:45:31.132Z,13.40
2022-11-13T19:48:19.024Z,13.40
2022-11-13T19:51:09.554Z,13.40
2022-11-13T19:53:59.003Z,13.40
2022-11-13T19:56:45.584Z,13.40
2022-11-13T19:59:34.561Z,13.30
2022-11-13T20:02:21.121Z,13.30
2022-11-13T20:05:08.444Z,13.30
2022-11-13T20:07:58.305Z,13.30
2022-11-13T20:10:44.904Z,13.30
2022-11-13T20:13:34.398Z,13.20
2022-11-13T20:16:23.507Z,13.20
2022-11-13T20:19:10.316Z,13.20
2022-11-13T20:21:57.175Z,13.10
2022-11-13T20:24:44.015Z,13.10
2022-11-13T20:27:32.035Z,13.10
2022-11-13T20:30:19.685Z,13.10
2022-11-13T20:33:07.554Z,13.10
2022-11-13T20:35:54.932Z,13.00
2022-11-13T20:38:42.132Z,13.00
2022-11-13T20:41:28.889Z,13.00
2022-11-13T20:44:15.819Z,13.00
2022-11-13T20:47:02.308Z,13.00
2022-11-13T20:49:50.409Z,12.90
2022-11-13T20:52:36.971Z,12.90
2022-11-13T20:55:23.500Z,12.90
2022-11-13T20:58:10.076Z,12.90
2022-11-13T21:01:03.670Z,12.80
2022-11-13T21:03:52.735Z,12.80
2022-11-13T21:06:40.880Z,12.80
2022-11-13T21:09:27.692Z,12.80
2022-11-13T21:12:14.166Z,12.70
2022-11-13T21:15:00.802Z,12.70
2022-11-13T21:17:47.614Z,12.70
2022-11-13T21:20:34.834Z,12.70
2022-11-13T21:23:22.708Z,12.60
2022-11-13T21:26:10.328Z,12.60
2022-11-13T21:28:57.368Z,12.60
2022-11-13T21:31:43.941Z,12.60
2022-11-13T21:34:30.538Z,12.60
2022-11-13T21:37:17.101Z,12.50
2022-11-13T21:40:06.101Z,12.50
2022-11-13T21:42:52.787Z,12.50
2022-11-13T21:45:39.331Z,12.50
2022-11-13T21:48:31.922Z,12.40
2022-11-13T21:51:19.673Z,12.40
2022-11-13T21:54:07.419Z,12.40
2022-11-13T21:56:55.509Z,12.40
2022-11-13T21:59:42.188Z,12.40
2022-11-13T22:02:29.033Z,12.30
2022-11-13T22:05:15.910Z,12.30
2022-11-13T22:08:02.748Z,12.30
2022-11-13T22:10:49.400Z,12.30
2022-11-13T22:13:38.489Z,12.20
2022-11-13T22:16:27.082Z,12.20
2022-11-13T22:19:17.180Z,12.20
2022-11-13T22:22:03.889Z,12.20
2022-11-13T22:24:50.557Z,12.20
2022-11-13T22:27:37.430Z,12.20
2022-11-13T22:30:25.371Z,12.10
2022-11-13T22:33:11.930Z,12.10
2022-11-13T22:36:03.911Z,12.10
2022-11-13T22:38:50.992Z,12.10
2022-11-13T22:41:38.074Z,12.10
2022-11-13T22:44:35.065Z,12.00
2022-11-13T22:47:37.062Z,12.00
2022-11-13T22:50:24.647Z,12.00
2022-11-13T22:53:14.563Z,12.00
2022-11-13T22:56:06.421Z,11.90
2022-11-13T22:58:55.779Z,11.90
2022-11-13T23:01:44.059Z,11.90
2022-11-13T23:04:31.798Z,11.90
2022-11-13T23:07:18.498Z,11.90
2022-11-13T23:10:06.284Z,11.80
2022-11-13T23:12:53.456Z,11.80
2022-11-13T23:15:39.880Z,11.80
2022-11-13T23:18:26.587Z,11.80
2022-11-13T23:21:15.971Z,11.80
2022-11-13T23:24:02.464Z,11.80
2022-11-13T23:26:49.337Z,11.70
2022-11-13T23:29:36.185Z,11.70
2022-11-13T23:32:22.808Z,11.70
2022-11-13T23:35:10.240Z,11.70
2022-11-13T23:37:58.072Z,11.70
2022-11-13T23:40:44.493Z,11.60
2022-11-13T23:44:02.175Z,11.70
2022-11-13T23:46:38.842Z,11.60
2022-11-13T23:49:25.696Z,11.60
2022-11-13T23:52:12.395Z,11.60
2022-11-13T23:55:00.549Z,11.60
2022-11-13T23:57:47.181Z,11.60
